sensor_id;sensor_type;location;lat;lon;timestamp;temperature;humidity
22008;DHT22;11168;56.976;24.168;2023-03-05T00:01:23;0.20;99.90
22008;DHT22;11168;56.976;24.168;2023-03-05T00:03:53;0.10;99.90
22008;DHT22;11168;56.976;24.168;2023-03-05T00:06:23;0.10;99.90
22008;DHT22;11168;56.976;24.168;2023-03-05T00:08:50;0.20;99.90
22008;DHT22;11168;56.976;24.168;2023-03-05T00:11:23;0.10;99.90
22008;DHT22;11168;56.976;24.168;2023-03-05T00:13:51;0.10;99.90
22008;DHT22;11168;56.976;24.168;2023-03-05T00:16:19;0.10;99.90
22008;DHT22;11168;56.976;24.168;2023-03-05T00:18:47;0.10;99.90
22008;DHT22;11168;56.976;24.168;2023-03-05T00:21:26;0.10;99.90
22008;DHT22;11168;56.976;24.168;2023-03-05T00:23:54;0.10;99.90
22008;DHT22;11168;56.976;24.168;2023-03-05T00:26:24;0.10;99.90
22008;DHT22;11168;56.976;24.168;2023-03-05T00:28:52;0.20;99.90
22008;DHT22;11168;56.976;24.168;2023-03-05T00:31:20;0.10;99.90
22008;DHT22;11168;56.976;24.168;2023-03-05T00:33:52;0.10;99.90
22008;DHT22;11168;56.976;24.168;2023-03-05T00:36:20;0.10;99.90
22008;DHT22;11168;56.976;24.168;2023-03-05T00:38:47;0.00;99.90
22008;DHT22;11168;56.976;24.168;2023-03-05T00:41:14;0.00;99.90
22008;DHT22;11168;56.976;24.168;2023-03-05T00:43:41;0.00;99.90
22008;DHT22;11168;56.976;24.168;2023-03-05T00:46:08;0.00;99.90
22008;DHT22;11168;56.976;24.168;2023-03-05T00:48:35;0.00;99.90
22008;DHT22;11168;56.976;24.168;2023-03-05T00:51:02;0.00;99.90
22008;DHT22;11168;56.976;24.168;2023-03-05T00:53:30;0.00;99.90
22008;DHT22;11168;56.976;24.168;2023-03-05T00:55:57;0.00;99.90
22008;DHT22;11168;56.976;24.168;2023-03-05T00:58:24;0.10;99.90
22008;DHT22;11168;56.976;24.168;2023-03-05T01:00:51;0.00;99.90
22008;DHT22;11168;56.976;24.168;2023-03-05T01:03:18;0.00;99.90
22008;DHT22;11168;56.976;24.168;2023-03-05T01:05:45;0.00;99.90
22008;DHT22;11168;56.976;24.168;2023-03-05T01:08:12;0.00;99.90
22008;DHT22;11168;56.976;24.168;2023-03-05T01:10:41;0.00;99.90
22008;DHT22;11168;56.976;24.168;2023-03-05T01:13:08;-0.10;99.90
22008;DHT22;11168;56.976;24.168;2023-03-05T01:15:35;0.00;99.90
22008;DHT22;11168;56.976;24.168;2023-03-05T01:18:02;-0.10;99.90
22008;DHT22;11168;56.976;24.168;2023-03-05T01:20:29;-0.20;99.90
22008;DHT22;11168;56.976;24.168;2023-03-05T01:22:56;-0.20;99.90
22008;DHT22;11168;56.976;24.168;2023-03-05T01:25:25;-0.20;99.90
22008;DHT22;11168;56.976;24.168;2023-03-05T01:27:51;-0.30;99.90
22008;DHT22;11168;56.976;24.168;2023-03-05T01:30:19;-0.30;99.90
22008;DHT22;11168;56.976;24.168;2023-03-05T01:32:46;-0.30;99.90
22008;DHT22;11168;56.976;24.168;2023-03-05T01:35:22;-0.40;99.90
22008;DHT22;11168;56.976;24.168;2023-03-05T01:37:49;-0.30;99.90
22008;DHT22;11168;56.976;24.168;2023-03-05T01:40:20;-0.40;99.90
22008;DHT22;11168;56.976;24.168;2023-03-05T01:42:54;-0.40;99.90
22008;DHT22;11168;56.976;24.168;2023-03-05T01:45:21;-0.40;99.90
22008;DHT22;11168;56.976;24.168;2023-03-05T01:47:48;-0.40;99.90
22008;DHT22;11168;56.976;24.168;2023-03-05T01:50:18;-0.40;99.90
22008;DHT22;11168;56.976;24.168;2023-03-05T01:52:51;-0.40;99.90
22008;DHT22;11168;56.976;24.168;2023-03-05T01:55:22;-0.40;99.90
22008;DHT22;11168;56.976;24.168;2023-03-05T01:57:56;-0.30;99.90
22008;DHT22;11168;56.976;24.168;2023-03-05T02:00:32;-0.30;99.90
22008;DHT22;11168;56.976;24.168;2023-03-05T02:03:05;-0.30;99.90
22008;DHT22;11168;56.976;24.168;2023-03-05T02:05:35;-0.20;99.90
22008;DHT22;11168;56.976;24.168;2023-03-05T02:08:09;-0.20;99.90
22008;DHT22;11168;56.976;24.168;2023-03-05T02:10:40;-0.30;99.90
22008;DHT22;11168;56.976;24.168;2023-03-05T02:13:11;-0.30;99.90
22008;DHT22;11168;56.976;24.168;2023-03-05T02:15:39;-0.30;99.90
22008;DHT22;11168;56.976;24.168;2023-03-05T02:18:07;-0.30;99.90
22008;DHT22;11168;56.976;24.168;2023-03-05T02:20:46;-0.40;99.90
22008;DHT22;11168;56.976;24.168;2023-03-05T02:23:15;-0.40;99.90
22008;DHT22;11168;56.976;24.168;2023-03-05T02:25:43;-0.50;99.90
22008;DHT22;11168;56.976;24.168;2023-03-05T02:28:18;-0.50;99.90
22008;DHT22;11168;56.976;24.168;2023-03-05T02:30:48;-0.50;99.90
22008;DHT22;11168;56.976;24.168;2023-03-05T02:33:17;-0.50;99.90
22008;DHT22;11168;56.976;24.168;2023-03-05T02:35:48;-0.40;99.90
22008;DHT22;11168;56.976;24.168;2023-03-05T02:38:17;-0.40;99.90
22008;DHT22;11168;56.976;24.168;2023-03-05T02:40:44;-0.40;99.90
22008;DHT22;11168;56.976;24.168;2023-03-05T02:43:11;-0.30;99.90
22008;DHT22;11168;56.976;24.168;2023-03-05T02:45:38;-0.30;99.90
22008;DHT22;11168;56.976;24.168;2023-03-05T02:48:05;-0.20;99.90
22008;DHT22;11168;56.976;24.168;2023-03-05T02:50:33;-0.20;99.90
22008;DHT22;11168;56.976;24.168;2023-03-05T02:53:00;-0.20;99.90
22008;DHT22;11168;56.976;24.168;2023-03-05T02:55:27;-0.10;99.90
22008;DHT22;11168;56.976;24.168;2023-03-05T02:57:54;-0.10;99.90
22008;DHT22;11168;56.976;24.168;2023-03-05T03:00:21;0.00;99.90
22008;DHT22;11168;56.976;24.168;2023-03-05T03:02:48;0.00;99.90
22008;DHT22;11168;56.976;24.168;2023-03-05T03:05:15;0.10;99.90
22008;DHT22;11168;56.976;24.168;2023-03-05T03:07:43;0.10;99.90
22008;DHT22;11168;56.976;24.168;2023-03-05T03:10:11;0.10;99.90
22008;DHT22;11168;56.976;24.168;2023-03-05T03:12:43;0.10;99.90
22008;DHT22;11168;56.976;24.168;2023-03-05T03:15:12;0.10;99.90
22008;DHT22;11168;56.976;24.168;2023-03-05T03:17:39;0.10;99.90
22008;DHT22;11168;56.976;24.168;2023-03-05T03:20:09;0.20;99.90
22008;DHT22;11168;56.976;24.168;2023-03-05T03:22:37;0.10;99.90
22008;DHT22;11168;56.976;24.168;2023-03-05T03:25:04;0.10;99.90
22008;DHT22;11168;56.976;24.168;2023-03-05T03:27:31;0.00;99.90
22008;DHT22;11168;56.976;24.168;2023-03-05T03:29:58;0.10;99.90
22008;DHT22;11168;56.976;24.168;2023-03-05T03:32:28;0.00;99.90
22008;DHT22;11168;56.976;24.168;2023-03-05T03:34:55;0.00;99.90
22008;DHT22;11168;56.976;24.168;2023-03-05T03:37:23;0.00;99.90
22008;DHT22;11168;56.976;24.168;2023-03-05T03:39:50;-0.10;99.90
22008;DHT22;11168;56.976;24.168;2023-03-05T03:42:18;-0.10;99.90
22008;DHT22;11168;56.976;24.168;2023-03-05T03:44:45;-0.10;99.90
22008;DHT22;11168;56.976;24.168;2023-03-05T03:47:12;0.00;99.90
22008;DHT22;11168;56.976;24.168;2023-03-05T03:49:39;-0.10;99.90
22008;DHT22;11168;56.976;24.168;2023-03-05T03:52:07;-0.10;99.90
22008;DHT22;11168;56.976;24.168;2023-03-05T03:54:34;-0.10;99.90
22008;DHT22;11168;56.976;24.168;2023-03-05T03:57:01;0.00;99.90
22008;DHT22;11168;56.976;24.168;2023-03-05T03:59:28;0.00;99.90
22008;DHT22;11168;56.976;24.168;2023-03-05T04:01:55;-0.10;99.90
22008;DHT22;11168;56.976;24.168;2023-03-05T04:04:22;0.00;99.90
22008;DHT22;11168;56.976;24.168;2023-03-05T04:06:49;0.00;99.90
22008;DHT22;11168;56.976;24.168;2023-03-05T04:09:16;0.10;99.90
22008;DHT22;11168;56.976;24.168;2023-03-05T04:11:43;0.00;99.90
22008;DHT22;11168;56.976;24.168;2023-03-05T04:14:09;0.00;99.90
22008;DHT22;11168;56.976;24.168;2023-03-05T04:16:36;0.00;99.90
22008;DHT22;11168;56.976;24.168;2023-03-05T04:19:06;0.10;99.90
22008;DHT22;11168;56.976;24.168;2023-03-05T04:21:33;0.00;99.90
22008;DHT22;11168;56.976;24.168;2023-03-05T04:24:00;0.00;99.90
22008;DHT22;11168;56.976;24.168;2023-03-05T04:26:27;0.00;99.90
22008;DHT22;11168;56.976;24.168;2023-03-05T04:28:54;0.00;99.90
22008;DHT22;11168;56.976;24.168;2023-03-05T04:31:21;0.10;99.90
22008;DHT22;11168;56.976;24.168;2023-03-05T04:33:49;0.10;99.90
22008;DHT22;11168;56.976;24.168;2023-03-05T04:36:16;0.10;99.90
22008;DHT22;11168;56.976;24.168;2023-03-05T04:38:43;0.00;99.90
22008;DHT22;11168;56.976;24.168;2023-03-05T04:41:10;0.00;99.90
22008;DHT22;11168;56.976;24.168;2023-03-05T04:43:37;0.10;99.90
22008;DHT22;11168;56.976;24.168;2023-03-05T04:46:04;0.10;99.90
22008;DHT22;11168;56.976;24.168;2023-03-05T04:48:31;0.00;99.90
22008;DHT22;11168;56.976;24.168;2023-03-05T04:51:00;0.00;99.90
22008;DHT22;11168;56.976;24.168;2023-03-05T04:53:29;0.00;99.90
22008;DHT22;11168;56.976;24.168;2023-03-05T04:55:56;0.00;99.90
22008;DHT22;11168;56.976;24.168;2023-03-05T04:58:23;-0.10;99.90
22008;DHT22;11168;56.976;24.168;2023-03-05T05:00:50;-0.10;99.90
22008;DHT22;11168;56.976;24.168;2023-03-05T05:03:17;-0.10;99.90
22008;DHT22;11168;56.976;24.168;2023-03-05T05:05:44;-0.10;99.90
22008;DHT22;11168;56.976;24.168;2023-03-05T05:08:11;-0.10;99.90
22008;DHT22;11168;56.976;24.168;2023-03-05T05:10:38;-0.10;99.90
22008;DHT22;11168;56.976;24.168;2023-03-05T05:13:06;-0.10;99.90
22008;DHT22;11168;56.976;24.168;2023-03-05T05:15:33;0.00;99.90
22008;DHT22;11168;56.976;24.168;2023-03-05T05:18:00;0.00;99.90
22008;DHT22;11168;56.976;24.168;2023-03-05T05:20:27;0.00;99.90
22008;DHT22;11168;56.976;24.168;2023-03-05T05:22:54;-0.10;99.90
22008;DHT22;11168;56.976;24.168;2023-03-05T05:25:21;0.00;99.90
22008;DHT22;11168;56.976;24.168;2023-03-05T05:27:47;-0.10;99.90
22008;DHT22;11168;56.976;24.168;2023-03-05T05:30:14;0.00;99.90
22008;DHT22;11168;56.976;24.168;2023-03-05T05:32:41;0.00;99.90
22008;DHT22;11168;56.976;24.168;2023-03-05T05:35:09;-0.10;99.90
22008;DHT22;11168;56.976;24.168;2023-03-05T05:37:36;0.00;99.90
22008;DHT22;11168;56.976;24.168;2023-03-05T05:40:04;0.10;99.90
22008;DHT22;11168;56.976;24.168;2023-03-05T05:42:34;0.10;99.90
22008;DHT22;11168;56.976;24.168;2023-03-05T05:45:01;0.10;99.90
22008;DHT22;11168;56.976;24.168;2023-03-05T05:47:28;0.20;99.90
22008;DHT22;11168;56.976;24.168;2023-03-05T05:49:56;0.20;99.90
22008;DHT22;11168;56.976;24.168;2023-03-05T05:52:23;0.20;99.90
22008;DHT22;11168;56.976;24.168;2023-03-05T05:54:50;0.20;99.90
22008;DHT22;11168;56.976;24.168;2023-03-05T05:57:17;0.20;99.90
22008;DHT22;11168;56.976;24.168;2023-03-05T05:59:44;0.20;99.90
22008;DHT22;11168;56.976;24.168;2023-03-05T06:02:11;0.30;99.90
22008;DHT22;11168;56.976;24.168;2023-03-05T06:04:38;0.30;99.90
22008;DHT22;11168;56.976;24.168;2023-03-05T06:07:05;0.30;99.90
22008;DHT22;11168;56.976;24.168;2023-03-05T06:09:34;0.20;99.90
22008;DHT22;11168;56.976;24.168;2023-03-05T06:12:02;0.30;99.90
22008;DHT22;11168;56.976;24.168;2023-03-05T06:14:29;0.40;99.90
22008;DHT22;11168;56.976;24.168;2023-03-05T06:16:56;0.40;99.90
22008;DHT22;11168;56.976;24.168;2023-03-05T06:19:23;0.30;99.90
22008;DHT22;11168;56.976;24.168;2023-03-05T06:21:50;0.40;99.90
22008;DHT22;11168;56.976;24.168;2023-03-05T06:24:17;0.40;99.90
22008;DHT22;11168;56.976;24.168;2023-03-05T06:26:45;0.40;99.90
22008;DHT22;11168;56.976;24.168;2023-03-05T06:29:14;0.40;99.90
22008;DHT22;11168;56.976;24.168;2023-03-05T06:31:41;0.50;99.90
22008;DHT22;11168;56.976;24.168;2023-03-05T06:34:09;0.50;99.90
22008;DHT22;11168;56.976;24.168;2023-03-05T06:36:38;0.50;99.90
22008;DHT22;11168;56.976;24.168;2023-03-05T06:39:06;0.50;99.90
22008;DHT22;11168;56.976;24.168;2023-03-05T06:41:33;0.60;99.90
22008;DHT22;11168;56.976;24.168;2023-03-05T06:44:01;0.50;99.90
22008;DHT22;11168;56.976;24.168;2023-03-05T06:46:31;0.50;99.90
22008;DHT22;11168;56.976;24.168;2023-03-05T06:49:00;0.50;99.90
22008;DHT22;11168;56.976;24.168;2023-03-05T06:51:32;0.50;99.90
22008;DHT22;11168;56.976;24.168;2023-03-05T06:54:03;0.60;99.90
22008;DHT22;11168;56.976;24.168;2023-03-05T06:56:30;0.60;99.90
22008;DHT22;11168;56.976;24.168;2023-03-05T06:58:57;0.70;99.90
22008;DHT22;11168;56.976;24.168;2023-03-05T07:01:25;0.70;99.90
22008;DHT22;11168;56.976;24.168;2023-03-05T07:03:53;0.70;99.90
22008;DHT22;11168;56.976;24.168;2023-03-05T07:06:21;0.80;99.90
22008;DHT22;11168;56.976;24.168;2023-03-05T07:08:48;0.90;99.90
22008;DHT22;11168;56.976;24.168;2023-03-05T07:11:18;1.10;99.90
22008;DHT22;11168;56.976;24.168;2023-03-05T07:13:46;1.00;99.90
22008;DHT22;11168;56.976;24.168;2023-03-05T07:16:19;1.00;99.90
22008;DHT22;11168;56.976;24.168;2023-03-05T07:18:47;1.20;99.90
22008;DHT22;11168;56.976;24.168;2023-03-05T07:21:17;1.30;99.90
22008;DHT22;11168;56.976;24.168;2023-03-05T07:23:45;1.50;99.90
22008;DHT22;11168;56.976;24.168;2023-03-05T07:26:15;1.50;99.90
22008;DHT22;11168;56.976;24.168;2023-03-05T07:28:42;1.50;99.90
22008;DHT22;11168;56.976;24.168;2023-03-05T07:31:15;1.60;99.90
22008;DHT22;11168;56.976;24.168;2023-03-05T07:33:47;1.60;99.90
22008;DHT22;11168;56.976;24.168;2023-03-05T07:36:14;1.80;99.90
22008;DHT22;11168;56.976;24.168;2023-03-05T07:38:42;1.90;99.90
22008;DHT22;11168;56.976;24.168;2023-03-05T07:41:11;1.90;99.90
22008;DHT22;11168;56.976;24.168;2023-03-05T07:43:39;1.70;99.90
22008;DHT22;11168;56.976;24.168;2023-03-05T07:46:08;1.40;99.90
22008;DHT22;11168;56.976;24.168;2023-03-05T07:48:36;1.40;99.90
22008;DHT22;11168;56.976;24.168;2023-03-05T07:51:06;1.40;99.90
22008;DHT22;11168;56.976;24.168;2023-03-05T07:53:33;1.40;99.90
22008;DHT22;11168;56.976;24.168;2023-03-05T07:56:00;1.20;99.90
22008;DHT22;11168;56.976;24.168;2023-03-05T07:58:28;1.10;99.90
22008;DHT22;11168;56.976;24.168;2023-03-05T08:00:55;0.90;99.90
22008;DHT22;11168;56.976;24.168;2023-03-05T08:03:22;1.00;99.90
22008;DHT22;11168;56.976;24.168;2023-03-05T08:05:49;1.00;99.90
22008;DHT22;11168;56.976;24.168;2023-03-05T08:08:16;1.00;99.90
22008;DHT22;11168;56.976;24.168;2023-03-05T08:10:43;1.10;99.90
22008;DHT22;11168;56.976;24.168;2023-03-05T08:13:10;1.10;99.90
22008;DHT22;11168;56.976;24.168;2023-03-05T08:15:37;1.20;99.90
22008;DHT22;11168;56.976;24.168;2023-03-05T08:18:04;1.10;99.90
22008;DHT22;11168;56.976;24.168;2023-03-05T08:20:34;1.20;99.90
22008;DHT22;11168;56.976;24.168;2023-03-05T08:23:02;1.40;99.90
22008;DHT22;11168;56.976;24.168;2023-03-05T08:25:29;1.50;99.90
22008;DHT22;11168;56.976;24.168;2023-03-05T08:27:57;1.60;99.90
22008;DHT22;11168;56.976;24.168;2023-03-05T08:30:24;1.80;99.90
22008;DHT22;11168;56.976;24.168;2023-03-05T08:32:53;1.70;99.90
22008;DHT22;11168;56.976;24.168;2023-03-05T08:35:21;2.00;99.90
22008;DHT22;11168;56.976;24.168;2023-03-05T08:37:48;2.00;99.90
22008;DHT22;11168;56.976;24.168;2023-03-05T08:40:15;1.80;99.90
22008;DHT22;11168;56.976;24.168;2023-03-05T08:42:45;1.80;99.90
22008;DHT22;11168;56.976;24.168;2023-03-05T08:45:13;1.70;99.90
22008;DHT22;11168;56.976;24.168;2023-03-05T08:47:40;1.80;99.90
22008;DHT22;11168;56.976;24.168;2023-03-05T08:50:07;1.80;99.90
22008;DHT22;11168;56.976;24.168;2023-03-05T08:52:35;1.80;99.90
22008;DHT22;11168;56.976;24.168;2023-03-05T08:55:02;2.10;99.90
22008;DHT22;11168;56.976;24.168;2023-03-05T08:57:29;2.80;99.90
22008;DHT22;11168;56.976;24.168;2023-03-05T08:59:56;2.90;99.90
22008;DHT22;11168;56.976;24.168;2023-03-05T09:02:23;3.10;99.90
22008;DHT22;11168;56.976;24.168;2023-03-05T09:04:50;3.30;99.90
22008;DHT22;11168;56.976;24.168;2023-03-05T09:07:17;3.00;99.90
22008;DHT22;11168;56.976;24.168;2023-03-05T09:09:44;3.10;99.90
22008;DHT22;11168;56.976;24.168;2023-03-05T09:12:11;3.10;99.90
22008;DHT22;11168;56.976;24.168;2023-03-05T09:14:39;2.90;99.90
22008;DHT22;11168;56.976;24.168;2023-03-05T09:17:12;3.10;99.90
22008;DHT22;11168;56.976;24.168;2023-03-05T09:19:39;3.10;99.90
22008;DHT22;11168;56.976;24.168;2023-03-05T09:22:06;3.10;99.90
22008;DHT22;11168;56.976;24.168;2023-03-05T09:24:32;3.40;99.90
22008;DHT22;11168;56.976;24.168;2023-03-05T09:26:59;3.50;99.90
22008;DHT22;11168;56.976;24.168;2023-03-05T09:29:27;3.90;99.90
22008;DHT22;11168;56.976;24.168;2023-03-05T09:32:02;3.60;99.90
22008;DHT22;11168;56.976;24.168;2023-03-05T09:34:30;3.10;99.90
22008;DHT22;11168;56.976;24.168;2023-03-05T09:36:57;3.10;99.90
22008;DHT22;11168;56.976;24.168;2023-03-05T09:39:24;2.80;99.90
22008;DHT22;11168;56.976;24.168;2023-03-05T09:50:09;2.70;99.90
22008;DHT22;11168;56.976;24.168;2023-03-05T09:52:45;2.70;99.90
22008;DHT22;11168;56.976;24.168;2023-03-05T09:55:20;2.50;99.90
22008;DHT22;11168;56.976;24.168;2023-03-05T09:57:51;2.60;99.90
22008;DHT22;11168;56.976;24.168;2023-03-05T10:02:55;2.20;99.90
22008;DHT22;11168;56.976;24.168;2023-03-05T10:05:28;2.20;99.90
22008;DHT22;11168;56.976;24.168;2023-03-05T10:08:01;2.00;99.90
22008;DHT22;11168;56.976;24.168;2023-03-05T10:10:41;2.20;99.90
22008;DHT22;11168;56.976;24.168;2023-03-05T10:13:20;2.20;99.90
22008;DHT22;11168;56.976;24.168;2023-03-05T10:16:54;2.00;99.90
22008;DHT22;11168;56.976;24.168;2023-03-05T10:21:52;1.90;99.90
22008;DHT22;11168;56.976;24.168;2023-03-05T10:27:07;2.00;99.90
22008;DHT22;11168;56.976;24.168;2023-03-05T10:43:22;2.10;99.90
22008;DHT22;11168;56.976;24.168;2023-03-05T10:45:52;2.10;99.90
22008;DHT22;11168;56.976;24.168;2023-03-05T10:48:39;2.20;99.90
22008;DHT22;11168;56.976;24.168;2023-03-05T10:51:16;2.10;99.90
22008;DHT22;11168;56.976;24.168;2023-03-05T10:54:01;2.20;99.90
22008;DHT22;11168;56.976;24.168;2023-03-05T10:56:30;2.20;99.90
22008;DHT22;11168;56.976;24.168;2023-03-05T10:59:02;1.90;99.90
22008;DHT22;11168;56.976;24.168;2023-03-05T11:01:29;1.70;99.90
22008;DHT22;11168;56.976;24.168;2023-03-05T11:03:59;1.40;99.90
22008;DHT22;11168;56.976;24.168;2023-03-05T11:06:32;1.40;99.90
22008;DHT22;11168;56.976;24.168;2023-03-05T11:14:29;1.80;99.90
22008;DHT22;11168;56.976;24.168;2023-03-05T11:17:00;2.40;99.90
22008;DHT22;11168;56.976;24.168;2023-03-05T11:19:32;2.80;99.90
22008;DHT22;11168;56.976;24.168;2023-03-05T11:22:17;3.10;99.90
22008;DHT22;11168;56.976;24.168;2023-03-05T11:27:48;2.80;99.90
22008;DHT22;11168;56.976;24.168;2023-03-05T11:30:21;2.60;99.90
22008;DHT22;11168;56.976;24.168;2023-03-05T11:35:42;2.20;99.90
22008;DHT22;11168;56.976;24.168;2023-03-05T11:38:21;2.50;99.90
22008;DHT22;11168;56.976;24.168;2023-03-05T11:40:52;3.00;99.90
22008;DHT22;11168;56.976;24.168;2023-03-05T11:43:23;3.70;99.90
22008;DHT22;11168;56.976;24.168;2023-03-05T11:45:58;4.00;99.90
22008;DHT22;11168;56.976;24.168;2023-03-05T11:48:38;4.00;99.90
22008;DHT22;11168;56.976;24.168;2023-03-05T11:51:36;3.30;99.90
22008;DHT22;11168;56.976;24.168;2023-03-05T11:54:13;2.80;99.90
22008;DHT22;11168;56.976;24.168;2023-03-05T11:56:44;2.30;99.90
22008;DHT22;11168;56.976;24.168;2023-03-05T11:59:26;2.20;99.90
22008;DHT22;11168;56.976;24.168;2023-03-05T12:01:56;2.10;99.90
22008;DHT22;11168;56.976;24.168;2023-03-05T12:04:24;2.10;99.90
22008;DHT22;11168;56.976;24.168;2023-03-05T12:07:01;2.20;99.90
22008;DHT22;11168;56.976;24.168;2023-03-05T12:09:46;2.50;99.90
22008;DHT22;11168;56.976;24.168;2023-03-05T12:12:52;2.90;99.90
22008;DHT22;11168;56.976;24.168;2023-03-05T12:15:26;3.50;99.90
22008;DHT22;11168;56.976;24.168;2023-03-05T12:21:02;4.60;99.90
22008;DHT22;11168;56.976;24.168;2023-03-05T12:23:44;4.30;99.90
22008;DHT22;11168;56.976;24.168;2023-03-05T12:26:12;4.00;99.90
22008;DHT22;11168;56.976;24.168;2023-03-05T12:33:44;2.90;99.90
22008;DHT22;11168;56.976;24.168;2023-03-05T12:38:53;2.50;99.90
22008;DHT22;11168;56.976;24.168;2023-03-05T12:46:34;2.40;99.90
22008;DHT22;11168;56.976;24.168;2023-03-05T12:51:46;2.80;99.90
22008;DHT22;11168;56.976;24.168;2023-03-05T12:54:32;2.60;99.90
22008;DHT22;11168;56.976;24.168;2023-03-05T12:57:26;2.50;99.90
22008;DHT22;11168;56.976;24.168;2023-03-05T13:00:09;2.00;99.90
22008;DHT22;11168;56.976;24.168;2023-03-05T13:02:42;1.80;99.90
22008;DHT22;11168;56.976;24.168;2023-03-05T13:05:31;1.70;99.90
22008;DHT22;11168;56.976;24.168;2023-03-05T13:08:30;1.60;99.90
22008;DHT22;11168;56.976;24.168;2023-03-05T13:11:27;1.70;99.90
22008;DHT22;11168;56.976;24.168;2023-03-05T13:13:55;1.90;99.90
22008;DHT22;11168;56.976;24.168;2023-03-05T13:16:28;2.00;99.90
22008;DHT22;11168;56.976;24.168;2023-03-05T13:19:00;2.30;99.90
22008;DHT22;11168;56.976;24.168;2023-03-05T13:21:29;2.40;99.90
22008;DHT22;11168;56.976;24.168;2023-03-05T13:24:01;2.50;99.90
22008;DHT22;11168;56.976;24.168;2023-03-05T13:26:35;2.40;99.90
22008;DHT22;11168;56.976;24.168;2023-03-05T13:31:39;2.30;99.90
22008;DHT22;11168;56.976;24.168;2023-03-05T13:36:36;1.90;99.90
22008;DHT22;11168;56.976;24.168;2023-03-05T13:39:04;1.90;99.90
22008;DHT22;11168;56.976;24.168;2023-03-05T13:41:32;2.00;99.90
22008;DHT22;11168;56.976;24.168;2023-03-05T13:44:01;2.00;99.90
22008;DHT22;11168;56.976;24.168;2023-03-05T13:46:34;2.10;99.90
22008;DHT22;11168;56.976;24.168;2023-03-05T13:49:20;2.10;99.90
22008;DHT22;11168;56.976;24.168;2023-03-05T13:51:50;2.20;99.90
22008;DHT22;11168;56.976;24.168;2023-03-05T13:54:18;2.20;99.90
22008;DHT22;11168;56.976;24.168;2023-03-05T13:57:00;2.10;99.90
22008;DHT22;11168;56.976;24.168;2023-03-05T13:59:29;2.00;99.90
22008;DHT22;11168;56.976;24.168;2023-03-05T14:01:59;1.90;99.90
22008;DHT22;11168;56.976;24.168;2023-03-05T14:04:45;1.70;99.90
22008;DHT22;11168;56.976;24.168;2023-03-05T14:07:38;1.60;99.90
22008;DHT22;11168;56.976;24.168;2023-03-05T14:12:56;1.50;99.90
22008;DHT22;11168;56.976;24.168;2023-03-05T14:15:26;1.40;99.90
22008;DHT22;11168;56.976;24.168;2023-03-05T14:18:17;1.40;99.90
22008;DHT22;11168;56.976;24.168;2023-03-05T14:21:09;1.40;99.90
22008;DHT22;11168;56.976;24.168;2023-03-05T14:23:44;1.50;99.90
22008;DHT22;11168;56.976;24.168;2023-03-05T14:26:29;1.40;99.90
22008;DHT22;11168;56.976;24.168;2023-03-05T14:31:59;1.30;99.90
22008;DHT22;11168;56.976;24.168;2023-03-05T14:34:40;1.30;99.90
22008;DHT22;11168;56.976;24.168;2023-03-05T14:37:31;1.20;99.90
22008;DHT22;11168;56.976;24.168;2023-03-05T14:40:21;1.10;99.90
22008;DHT22;11168;56.976;24.168;2023-03-05T14:42:55;1.00;99.90
22008;DHT22;11168;56.976;24.168;2023-03-05T14:45:29;1.00;99.90
22008;DHT22;11168;56.976;24.168;2023-03-05T14:47:59;0.90;99.90
22008;DHT22;11168;56.976;24.168;2023-03-05T14:50:31;1.00;99.90
22008;DHT22;11168;56.976;24.168;2023-03-05T14:53:06;0.90;99.90
22008;DHT22;11168;56.976;24.168;2023-03-05T14:55:34;1.00;99.90
22008;DHT22;11168;56.976;24.168;2023-03-05T14:58:12;0.90;99.90
22008;DHT22;11168;56.976;24.168;2023-03-05T15:00:41;1.00;99.90
22008;DHT22;11168;56.976;24.168;2023-03-05T15:03:12;0.90;99.90
22008;DHT22;11168;56.976;24.168;2023-03-05T15:05:40;0.90;99.90
22008;DHT22;11168;56.976;24.168;2023-03-05T15:08:17;0.80;99.90
22008;DHT22;11168;56.976;24.168;2023-03-05T15:10:46;0.70;99.90
22008;DHT22;11168;56.976;24.168;2023-03-05T15:13:14;0.60;99.90
22008;DHT22;11168;56.976;24.168;2023-03-05T15:15:42;0.60;99.90
22008;DHT22;11168;56.976;24.168;2023-03-05T15:18:12;0.60;99.90
22008;DHT22;11168;56.976;24.168;2023-03-05T15:20:39;0.60;99.90
22008;DHT22;11168;56.976;24.168;2023-03-05T15:23:06;0.50;99.90
22008;DHT22;11168;56.976;24.168;2023-03-05T15:25:33;0.40;99.90
22008;DHT22;11168;56.976;24.168;2023-03-05T15:28:01;0.40;99.90
22008;DHT22;11168;56.976;24.168;2023-03-05T15:32:59;0.40;99.90
22008;DHT22;11168;56.976;24.168;2023-03-05T15:35:26;0.30;99.90
22008;DHT22;11168;56.976;24.168;2023-03-05T15:37:54;0.30;99.90
22008;DHT22;11168;56.976;24.168;2023-03-05T15:40:23;0.20;99.90
22008;DHT22;11168;56.976;24.168;2023-03-05T15:42:54;0.20;99.90
22008;DHT22;11168;56.976;24.168;2023-03-05T15:45:21;0.30;99.90
22008;DHT22;11168;56.976;24.168;2023-03-05T15:47:50;0.10;99.90
22008;DHT22;11168;56.976;24.168;2023-03-05T15:50:19;0.10;99.90
22008;DHT22;11168;56.976;24.168;2023-03-05T15:52:46;0.20;99.90
22008;DHT22;11168;56.976;24.168;2023-03-05T15:55:13;0.10;99.90
22008;DHT22;11168;56.976;24.168;2023-03-05T15:57:46;0.20;99.90
22008;DHT22;11168;56.976;24.168;2023-03-05T16:00:16;0.20;99.90
22008;DHT22;11168;56.976;24.168;2023-03-05T16:02:43;0.10;99.90
22008;DHT22;11168;56.976;24.168;2023-03-05T16:05:10;0.10;99.90
22008;DHT22;11168;56.976;24.168;2023-03-05T16:07:41;0.10;99.90
22008;DHT22;11168;56.976;24.168;2023-03-05T16:10:12;0.10;99.90
22008;DHT22;11168;56.976;24.168;2023-03-05T16:12:40;0.10;99.90
22008;DHT22;11168;56.976;24.168;2023-03-05T16:15:15;0.00;99.90
22008;DHT22;11168;56.976;24.168;2023-03-05T16:17:45;0.00;99.90
22008;DHT22;11168;56.976;24.168;2023-03-05T16:20:13;0.00;99.90
22008;DHT22;11168;56.976;24.168;2023-03-05T16:22:41;0.10;99.90
22008;DHT22;11168;56.976;24.168;2023-03-05T16:25:08;0.10;99.90
22008;DHT22;11168;56.976;24.168;2023-03-05T16:27:35;0.00;99.90
22008;DHT22;11168;56.976;24.168;2023-03-05T16:30:03;0.00;99.90
22008;DHT22;11168;56.976;24.168;2023-03-05T16:32:31;0.00;99.90
22008;DHT22;11168;56.976;24.168;2023-03-05T16:34:58;0.00;99.90
22008;DHT22;11168;56.976;24.168;2023-03-05T16:37:25;-0.10;99.90
22008;DHT22;11168;56.976;24.168;2023-03-05T16:39:52;-0.10;99.90
22008;DHT22;11168;56.976;24.168;2023-03-05T16:42:18;-0.10;99.90
22008;DHT22;11168;56.976;24.168;2023-03-05T16:44:45;-0.10;99.90
22008;DHT22;11168;56.976;24.168;2023-03-05T16:47:13;-0.10;99.90
22008;DHT22;11168;56.976;24.168;2023-03-05T16:49:40;-0.10;99.90
22008;DHT22;11168;56.976;24.168;2023-03-05T16:52:07;-0.10;99.90
22008;DHT22;11168;56.976;24.168;2023-03-05T16:54:45;-0.10;99.90
22008;DHT22;11168;56.976;24.168;2023-03-05T16:57:13;-0.10;99.90
22008;DHT22;11168;56.976;24.168;2023-03-05T16:59:41;-0.20;99.90